Time;durP1;ratioP1;P1;durP2;ratioP2;P2;SDS_P1;SDS_P2;PMS_P1;PMS_P2;Temp;Humidity;BMP_temperature;BMP_pressure;BME280_temperature;BME280_humidity;BME280_pressure;Samples;Min_cycle;Max_cycle;Signal;HPM_P1;HPM_P2
2023/12/22 00:03:29;;;;;;;23.10;12.82;;;;;;;3.74;100.00;99523.00;10453758;28;20120;-75
2023/12/22 00:08:30;;;;;;;30.35;12.48;;;;;;;3.80;100.00;99522.03;10435308;28;20041;-73
2023/12/22 00:13:33;;;;;;;25.60;13.80;;;;;;;3.99;100.00;99522.66;10437199;28;20053;-73
2023/12/22 00:18:33;;;;;;;26.35;13.30;;;;;;;3.98;100.00;99522.88;10450250;28;20033;-74
2023/12/22 00:23:35;;;;;;;25.95;12.00;;;;;;;4.11;100.00;99522.56;10457380;28;20037;-73
2023/12/22 00:28:36;;;;;;;33.15;15.05;;;;;;;4.25;100.00;99608.38;10450976;28;20059;-73
2023/12/22 00:33:36;;;;;;;26.60;24.00;;;;;;;3.46;100.00;99569.22;10446153;28;20041;-73
2023/12/22 00:38:37;;;;;;;30.90;28.02;;;;;;;3.03;100.00;99568.53;10447597;28;20029;-74
2023/12/22 00:43:37;;;;;;;29.25;21.98;;;;;;;3.07;100.00;99560.75;10459119;28;20041;-74
2023/12/22 00:48:38;;;;;;;27.63;18.00;;;;;;;3.14;100.00;99553.28;10464793;28;20041;-75
2023/12/22 00:53:38;;;;;;;33.25;13.60;;;;;;;3.34;100.00;99531.97;10446345;28;20061;-74
2023/12/22 00:58:39;;;;;;;19.17;11.52;;;;;;;3.51;100.00;99539.38;10463282;28;20045;-75
2023/12/22 01:03:40;;;;;;;27.40;11.25;;;;;;;3.70;100.00;99549.06;10444993;28;20086;-72
2023/12/22 01:08:40;;;;;;;14.95;8.98;;;;;;;3.79;100.00;99563.09;10462827;28;20045;-74
2023/12/22 01:13:41;;;;;;;15.55;7.53;;;;;;;3.77;100.00;99570.69;10461466;28;20348;-75
2023/12/22 01:18:43;;;;;;;19.05;8.63;;;;;;;3.66;100.00;99550.59;10457190;28;20056;-75
2023/12/22 01:23:44;;;;;;;20.65;8.57;;;;;;;3.73;100.00;99575.78;10477782;28;20576;-75
2023/12/22 01:28:44;;;;;;;20.73;11.05;;;;;;;3.74;100.00;99560.25;10461744;28;20041;-74
2023/12/22 01:33:44;;;;;;;22.23;8.65;;;;;;;3.97;100.00;99575.69;10462456;28;20033;-75
2023/12/22 01:38:45;;;;;;;24.67;9.57;;;;;;;4.01;100.00;99577.69;10462164;28;20033;-75
2023/12/22 01:43:45;;;;;;;22.48;9.60;;;;;;;4.03;100.00;99582.88;10444831;28;20025;-74
2023/12/22 01:48:46;;;;;;;27.35;12.68;;;;;;;3.68;100.00;99553.91;10462204;28;20037;-74
2023/12/22 01:53:47;;;;;;;26.45;12.07;;;;;;;3.80;100.00;99573.75;10460266;28;20051;-73
2023/12/22 01:58:47;;;;;;;30.23;10.23;;;;;;;3.90;100.00;99580.47;10443522;28;20074;-74
2023/12/22 02:03:54;;;;;;;28.90;9.25;;;;;;;4.05;100.00;99602.53;10458788;28;20497;-74
2023/12/22 02:08:54;;;;;;;32.17;10.85;;;;;;;4.22;100.00;99597.97;10459981;28;20055;-73
2023/12/22 02:13:55;;;;;;;24.58;10.60;;;;;;;4.35;100.00;99601.47;10461807;28;20029;-75
2023/12/22 02:18:55;;;;;;;25.35;9.77;;;;;;;4.36;100.00;99584.03;10443264;28;20090;-75
2023/12/22 02:23:56;;;;;;;23.05;9.02;;;;;;;4.46;100.00;99573.31;10442317;28;20055;-73
2023/12/22 02:28:57;;;;;;;24.90;7.55;;;;;;;4.35;100.00;99566.03;10458255;28;20041;-73
2023/12/22 02:33:57;;;;;;;21.35;9.48;;;;;;;4.45;100.00;99590.75;10458154;28;20063;-73
2023/12/22 02:38:58;;;;;;;26.33;9.73;;;;;;;4.32;100.00;99626.47;10460324;28;20041;-75
2023/12/22 02:43:58;;;;;;;22.80;9.40;;;;;;;4.27;100.00;99590.97;10457709;28;20045;-74
2023/12/22 02:48:59;;;;;;;18.10;7.13;;;;;;;4.25;100.00;99611.09;10475425;28;20052;-74
2023/12/22 02:53:59;;;;;;;19.80;7.13;;;;;;;4.21;100.00;99577.22;10440861;28;20073;-76
2023/12/22 02:59:00;;;;;;;16.80;7.93;;;;;;;4.10;100.00;99544.63;10459660;28;20115;-75
2023/12/22 03:04:00;;;;;;;22.55;8.55;;;;;;;4.22;100.00;99573.47;10440374;28;20044;-77
2023/12/22 03:09:01;;;;;;;23.08;9.85;;;;;;;4.21;100.00;99577.22;10472871;28;20575;-74
2023/12/22 03:14:01;;;;;;;26.15;8.73;;;;;;;4.24;100.00;99584.94;10456914;28;20037;-73
2023/12/22 03:19:02;;;;;;;32.92;17.77;;;;;;;4.22;100.00;99617.03;10457130;28;20041;-73
2023/12/22 03:24:02;;;;;;;34.30;23.90;;;;;;;3.85;100.00;99583.91;10440235;28;20044;-77
2023/12/22 03:29:03;;;;;;;19.63;18.10;;;;;;;3.61;100.00;99610.34;10456523;28;20045;-71
2023/12/22 03:34:03;;;;;;;20.05;18.20;;;;;;;3.09;100.00;99561.34;10457807;28;20052;-74
2023/12/22 03:39:04;;;;;;;16.23;14.77;;;;;;;3.30;100.00;99615.13;10458252;28;20049;-74
2023/12/22 03:44:04;;;;;;;18.05;11.98;;;;;;;3.41;100.00;99606.13;10439113;28;20040;-75
2023/12/22 03:49:05;;;;;;;19.58;13.20;;;;;;;3.44;100.00;99597.47;10451296;28;20437;-75
2023/12/22 03:54:05;;;;;;;26.38;13.65;;;;;;;3.44;100.00;99602.94;10472799;28;20037;-74
2023/12/22 03:59:05;;;;;;;25.15;12.25;;;;;;;3.50;100.00;99608.50;10458445;28;20103;-74
2023/12/22 04:04:06;;;;;;;20.40;10.73;;;;;;;3.72;100.00;99601.34;10462220;28;20049;-73
2023/12/22 04:09:06;;;;;;;20.42;11.85;;;;;;;3.86;100.00;99595.63;10465496;28;20095;-74
2023/12/22 04:14:07;;;;;;;26.50;11.77;;;;;;;4.04;100.00;99625.41;10467108;28;20049;-73
2023/12/22 04:19:07;;;;;;;19.10;17.30;;;;;;;4.02;100.00;99654.78;10464468;28;20045;-75
2023/12/22 04:24:08;;;;;;;20.58;17.70;;;;;;;3.82;100.00;99607.00;10463609;28;20040;-74
2023/12/22 04:29:09;;;;;;;21.38;14.35;;;;;;;3.88;100.00;99628.88;10480515;28;20407;-75
2023/12/22 04:34:09;;;;;;;16.83;11.57;;;;;;;3.80;100.00;99613.75;10463505;28;20043;-72
2023/12/22 04:39:10;;;;;;;20.23;12.52;;;;;;;3.83;100.00;99622.25;10464617;28;20045;-76
2023/12/22 04:44:10;;;;;;;20.02;13.88;;;;;;;3.89;100.00;99638.72;10459785;28;20484;-75
2023/12/22 04:49:11;;;;;;;22.30;15.52;;;;;;;3.95;100.00;99640.44;10445773;28;20041;-76
2023/12/22 04:54:11;;;;;;;24.15;13.40;;;;;;;4.08;100.00;99629.28;10444659;28;20553;-74
2023/12/22 04:59:12;;;;;;;21.52;11.23;;;;;;;4.08;100.00;99623.84;10462617;28;20071;-73
2023/12/22 05:04:12;;;;;;;22.95;7.15;;;;;;;4.24;100.00;99624.97;10462310;28;20551;-76
2023/12/22 05:09:13;;;;;;;25.05;5.95;;;;;;;4.50;100.00;99648.06;10461636;28;20037;-75
2023/12/22 05:14:14;;;;;;;15.18;6.32;;;;;;;4.63;100.00;99630.56;10434695;28;20044;-74
2023/12/22 05:19:14;;;;;;;23.05;5.72;;;;;;;4.57;100.00;99643.31;10452171;28;20040;-74
2023/12/22 05:24:15;;;;;;;14.43;4.50;;;;;;;4.71;100.00;99629.34;10475690;28;20048;-75
2023/12/22 05:29:15;;;;;;;19.60;5.28;;;;;;;4.79;100.00;99642.56;10444370;28;20041;-74
2023/12/22 05:34:16;;;;;;;25.75;4.38;;;;;;;4.97;100.00;99642.34;10445021;28;20055;-72
2023/12/22 05:39:17;;;;;;;20.10;5.72;;;;;;;4.87;100.00;99635.91;10477248;28;20095;-73
2023/12/22 05:44:18;;;;;;;21.77;5.90;;;;;;;4.96;100.00;99648.88;10428007;28;21127;-74
2023/12/22 05:49:18;;;;;;;16.52;4.72;;;;;;;5.24;100.00;99674.41;10476905;28;20052;-75
2023/12/22 05:54:20;;;;;;;18.17;4.25;;;;;;;5.28;100.00;99678.31;10441776;28;20048;-77
2023/12/22 05:59:20;;;;;;;24.17;5.22;;;;;;;5.29;100.00;99677.22;10460386;28;20224;-75
2023/12/22 06:04:21;;;;;;;22.63;4.93;;;;;;;5.31;100.00;99685.97;10477066;28;20036;-75
2023/12/22 06:09:22;;;;;;;29.08;6.50;;;;;;;5.30;100.00;99676.16;10442284;28;20044;-75
2023/12/22 06:14:22;;;;;;;21.02;5.25;;;;;;;5.22;100.00;99671.13;10426117;28;20068;-75
2023/12/22 06:19:24;;;;;;;15.93;6.18;;;;;;;5.35;100.00;99689.88;10453977;28;20033;-73
2023/12/22 06:24:26;;;;;;;29.85;6.28;;;;;;;5.36;100.00;99713.38;10442739;28;20045;-74
2023/12/22 06:29:27;;;;;;;22.27;6.85;;;;;;;5.38;100.00;99705.75;10442484;28;20041;-75
2023/12/22 06:34:27;;;;;;;22.65;7.22;;;;;;;5.38;100.00;99708.50;10459092;28;20400;-75
2023/12/22 06:39:28;;;;;;;22.52;5.47;;;;;;;5.38;100.00;99705.75;10474874;28;20045;-73
2023/12/22 06:44:29;;;;;;;34.53;7.43;;;;;;;5.39;100.00;99692.94;10475606;28;20045;-75
2023/12/22 06:49:30;;;;;;;16.27;5.93;;;;;;;5.41;100.00;99701.69;10433744;28;20037;-75
2023/12/22 06:54:30;;;;;;;18.13;4.57;;;;;;;5.50;100.00;99724.78;10474167;28;20048;-74
2023/12/22 06:59:31;;;;;;;23.30;5.75;;;;;;;5.44;100.00;99701.22;10473219;28;20045;-74
2023/12/22 07:04:31;;;;;;;13.90;5.65;;;;;;;5.39;100.00;99728.41;10440218;28;20048;-74
2023/12/22 07:09:32;;;;;;;17.95;5.80;;;;;;;5.33;100.00;99757.50;10456790;28;20048;-75
2023/12/22 07:14:32;;;;;;;14.30;6.28;;;;;;;5.10;100.00;99752.22;10437619;28;20155;-75
2023/12/22 07:19:35;;;;;;;13.65;4.18;;;;;;;4.98;100.00;99777.66;10440288;28;20099;-75
2023/12/22 07:24:35;;;;;;;14.75;9.77;;;;;;;4.56;100.00;99821.53;10439202;28;20029;-73
2023/12/22 07:29:35;;;;;;;24.90;22.70;;;;;;;3.96;100.00;99824.56;10454828;28;20041;-71
2023/12/22 07:34:36;;;;;;;34.55;31.38;;;;;;;3.54;100.00;99827.38;10458396;28;20056;-73
2023/12/22 07:39:36;;;;;;;38.08;34.20;;;;;;;3.31;100.00;99817.25;10456818;28;20044;-74
2023/12/22 07:44:37;;;;;;;32.97;30.20;;;;;;;3.15;100.00;99805.16;10439107;28;20459;-74
2023/12/22 07:49:37;;;;;;;31.48;28.88;;;;;;;3.17;100.00;99805.75;10454788;28;20045;-73
2023/12/22 07:54:38;;;;;;;31.60;28.73;;;;;;;3.16;100.00;99814.97;10412560;28;20461;-74
2023/12/22 07:59:38;;;;;;;32.65;29.73;;;;;;;3.02;100.00;99806.19;10455817;28;20041;-74
2023/12/22 08:04:39;;;;;;;31.55;28.80;;;;;;;3.08;100.00;99813.41;10457234;28;20041;-74
2023/12/22 08:09:39;;;;;;;33.80;31.15;;;;;;;3.20;100.00;99825.16;10436761;28;20060;-72
2023/12/22 08:14:40;;;;;;;30.95;28.48;;;;;;;3.23;100.00;99813.00;10438669;28;20063;-73
2023/12/22 08:19:44;;;;;;;34.53;31.13;;;;;;;3.38;100.00;99813.38;10454601;28;20116;-74
2023/12/22 08:24:45;;;;;;;31.13;27.83;;;;;;;3.47;100.00;99827.47;10454669;28;20037;-73
2023/12/22 08:29:45;;;;;;;32.75;28.30;;;;;;;3.53;100.00;99803.94;10435754;28;20041;-74
2023/12/22 08:34:46;;;;;;;34.08;28.85;;;;;;;3.66;100.00;99795.56;10453108;28;20053;-74
2023/12/22 08:39:46;;;;;;;32.92;28.77;;;;;;;3.77;100.00;99793.91;10431358;28;20037;-74
2023/12/22 08:44:47;;;;;;;41.70;30.20;;;;;;;3.83;100.00;99799.22;10453786;28;20072;-75
2023/12/22 08:49:47;;;;;;;32.88;28.13;;;;;;;3.98;100.00;99819.72;10420776;28;20044;-75
2023/12/22 08:54:48;;;;;;;38.05;26.35;;;;;;;4.04;100.00;99826.94;10459184;28;20041;-74
2023/12/22 08:59:48;;;;;;;28.80;25.92;;;;;;;4.16;100.00;99811.41;10446633;28;20049;-74
2023/12/22 09:04:49;;;;;;;28.67;21.52;;;;;;;4.37;100.00;99814.59;10424101;28;20038;-74
2023/12/22 09:09:49;;;;;;;24.35;20.63;;;;;;;4.47;100.00;99814.81;10422024;28;20029;-73
2023/12/22 09:14:50;;;;;;;25.30;22.65;;;;;;;4.49;100.00;99793.59;10401237;28;20042;-73
2023/12/22 09:19:50;;;;;;;34.83;23.42;;;;;;;4.46;100.00;99775.00;10417297;28;20410;-73
2023/12/22 09:24:51;;;;;;;32.67;22.88;;;;;;;4.52;100.00;99786.84;10378618;28;20037;-73
2023/12/22 09:29:51;;;;;;;24.98;22.50;;;;;;;4.52;100.00;99781.38;10438807;28;20045;-74
2023/12/22 09:34:52;;;;;;;31.05;20.70;;;;;;;4.68;100.00;99785.25;10426744;28;20087;-72
2023/12/22 09:39:53;;;;;;;29.08;21.67;;;;;;;4.80;100.00;99783.31;10393528;28;20064;-73
2023/12/22 09:44:54;;;;;;;32.20;21.63;;;;;;;4.90;100.00;99779.94;10405087;28;20049;-73
2023/12/22 09:49:55;;;;;;;26.17;22.67;;;;;;;4.90;100.00;99769.03;10442434;28;20091;-73
2023/12/22 09:54:55;;;;;;;27.58;22.63;;;;;;;5.02;100.00;99784.28;10442666;28;20033;-73
2023/12/22 09:59:56;;;;;;;24.42;19.25;;;;;;;5.09;100.00;99770.50;10434267;28;20061;-73
2023/12/22 10:04:56;;;;;;;31.35;18.75;;;;;;;5.17;100.00;99785.66;10457890;28;20033;-72
2023/12/22 10:09:57;;;;;;;16.52;14.70;;;;;;;5.29;100.00;99777.38;10441955;28;20071;-74
2023/12/22 10:14:58;;;;;;;23.33;13.95;;;;;;;5.37;100.00;99771.50;10457182;28;20037;-73
2023/12/22 10:19:59;;;;;;;18.08;12.60;;;;;;;5.49;100.00;99793.28;10421924;28;20037;-73
2023/12/22 10:24:59;;;;;;;19.48;13.15;;;;;;;5.56;100.00;99786.59;10457687;28;20037;-74
2023/12/22 10:30:00;;;;;;;13.90;11.40;;;;;;;5.60;100.00;99757.72;10441349;28;20071;-73
2023/12/22 10:35:00;;;;;;;13.05;11.70;;;;;;;5.68;100.00;99783.75;10436649;28;20033;-72
2023/12/22 10:40:03;;;;;;;13.40;10.52;;;;;;;5.75;100.00;99775.41;10457295;28;20067;-73
2023/12/22 10:45:04;;;;;;;22.95;11.25;;;;;;;5.81;100.00;99749.84;10440619;28;20348;-74
2023/12/22 10:50:04;;;;;;;23.35;12.50;;;;;;;5.80;100.00;99742.72;10456653;28;20127;-73
2023/12/22 10:55:06;;;;;;;14.88;12.95;;;;;;;5.92;100.00;99751.63;10440408;28;20065;-73
2023/12/22 11:00:09;;;;;;;20.52;13.38;;;;;;;5.95;100.00;99737.47;10439955;28;20043;-73
2023/12/22 11:05:11;;;;;;;16.42;11.55;;;;;;;6.01;100.00;99741.13;10437664;28;20033;-74
2023/12/22 11:10:12;;;;;;;21.13;13.48;;;;;;;5.97;100.00;99746.25;10455069;28;20040;-73
2023/12/22 11:15:13;;;;;;;16.35;12.40;;;;;;;6.06;100.00;99743.94;10455995;28;20037;-73
2023/12/22 11:20:13;;;;;;;16.50;13.50;;;;;;;5.97;100.00;99756.34;10430163;28;20104;-73
2023/12/22 11:25:15;;;;;;;15.98;13.15;;;;;;;5.75;100.00;99710.69;10422931;28;20041;-73
2023/12/22 11:30:15;;;;;;;26.13;15.27;;;;;;;6.00;100.00;99755.88;10451168;28;20045;-73
2023/12/22 11:35:17;;;;;;;15.65;12.93;;;;;;;6.02;100.00;99742.78;10419745;28;20045;-74
2023/12/22 11:40:19;;;;;;;17.90;12.65;;;;;;;6.02;100.00;99748.25;10437175;28;20069;-73
2023/12/22 11:45:22;;;;;;;18.23;13.70;;;;;;;6.08;100.00;99730.84;10437654;28;20047;-73
2023/12/22 11:50:32;;;;;;;15.38;12.32;;;;;;;6.12;100.00;99721.06;10438243;28;20501;-73
2023/12/22 11:56:07;;;;;;;18.55;12.52;;;;;;;6.23;100.00;99714.63;10437710;28;20033;-73
2023/12/22 12:01:08;;;;;;;16.75;12.63;;;;;;;6.28;100.00;99734.91;10444095;28;20115;-73
2023/12/22 12:06:17;;;;;;;14.85;11.23;;;;;;;6.30;100.00;99732.75;10453392;28;20154;-74
2023/12/22 12:11:18;;;;;;;27.75;13.48;;;;;;;6.33;100.00;99705.75;10455376;28;20102;-73
2023/12/22 12:16:21;;;;;;;25.05;12.68;;;;;;;6.31;100.00;99709.81;10421749;28;20381;-74
2023/12/22 12:21:22;;;;;;;19.77;12.45;;;;;;;6.32;100.00;99697.78;10440400;28;20037;-73
2023/12/22 12:26:23;;;;;;;23.95;13.18;;;;;;;6.10;100.00;99643.97;10459393;28;20037;-73
2023/12/22 12:31:35;;;;;;;17.27;12.90;;;;;;;6.33;100.00;99663.94;10442380;28;20445;-72
2023/12/22 12:36:36;;;;;;;18.60;12.75;;;;;;;6.26;100.00;99670.41;10457307;28;20076;-74
2023/12/22 12:41:40;;;;;;;20.10;14.32;;;;;;;6.38;100.00;99669.44;10441461;28;20036;-73
2023/12/22 12:46:44;;;;;;;19.17;14.68;;;;;;;6.36;100.00;99679.81;10463128;28;20075;-73
2023/12/22 12:51:46;;;;;;;18.58;14.23;;;;;;;6.37;100.00;99673.25;10424889;28;20044;-73
2023/12/22 12:56:46;;;;;;;22.77;12.35;;;;;;;6.36;100.00;99685.28;10459695;28;20048;-73
2023/12/22 13:01:48;;;;;;;20.90;13.40;;;;;;;6.33;100.00;99672.13;10426545;28;20041;-73
2023/12/22 13:06:48;;;;;;;25.60;16.25;;;;;;;6.30;100.00;99678.09;10453128;28;20063;-73
2023/12/22 13:11:49;;;;;;;21.40;14.50;;;;;;;6.42;100.00;99667.84;10459939;28;20505;-72
2023/12/22 13:16:50;;;;;;;19.23;11.73;;;;;;;6.29;100.00;99654.59;10444792;28;20041;-73
2023/12/22 13:21:50;;;;;;;19.08;11.95;;;;;;;6.42;100.00;99671.41;10460290;28;20040;-72
2023/12/22 13:27:03;;;;;;;22.83;14.98;;;;;;;6.37;100.00;99654.94;10409244;28;20859;-73
2023/12/22 13:32:03;;;;;;;25.25;22.77;;;;;;;6.25;100.00;99660.53;10443033;28;20063;-72
2023/12/22 13:37:04;;;;;;;24.23;20.95;;;;;;;6.04;100.00;99658.66;10459960;28;20059;-73
2023/12/22 13:42:04;;;;;;;24.88;22.38;;;;;;;5.93;100.00;99668.56;10425202;28;20037;-73
2023/12/22 13:47:05;;;;;;;35.47;24.15;;;;;;;5.91;100.00;99669.91;10443711;28;20075;-72
2023/12/22 13:52:07;;;;;;;25.15;23.08;;;;;;;5.89;100.00;99691.19;10425855;28;20052;-73
2023/12/22 13:57:20;;;;;;;25.40;23.15;;;;;;;5.71;100.00;99663.13;10422913;28;20417;-72
2023/12/22 14:02:22;;;;;;;26.73;24.85;;;;;;;5.78;100.00;99699.25;10442039;28;20041;-74
2023/12/22 14:07:22;;;;;;;29.80;26.95;;;;;;;5.67;100.00;99686.53;10425214;28;20041;-73
2023/12/22 14:12:23;;;;;;;28.02;25.90;;;;;;;5.57;100.00;99684.47;10434423;28;20056;-73
2023/12/22 14:17:23;;;;;;;27.75;25.90;;;;;;;5.58;100.00;99671.66;10442174;28;20047;-72
2023/12/22 14:22:24;;;;;;;27.67;25.95;;;;;;;5.61;100.00;99693.00;10441383;28;20037;-74
2023/12/22 14:27:25;;;;;;;26.23;24.70;;;;;;;5.50;100.00;99702.94;10440532;28;20444;-73
2023/12/22 14:32:25;;;;;;;28.38;26.48;;;;;;;5.52;100.00;99733.56;10440850;28;20047;-72
2023/12/22 14:37:26;;;;;;;30.30;28.13;;;;;;;5.18;100.00;99657.13;10472467;28;20037;-73
2023/12/22 14:42:26;;;;;;;31.88;30.02;;;;;;;5.45;100.00;99665.47;10472331;28;20400;-73
2023/12/22 14:47:27;;;;;;;31.50;29.38;;;;;;;5.35;100.00;99662.56;10423307;28;20095;-73
2023/12/22 14:52:27;;;;;;;31.02;29.00;;;;;;;5.25;100.00;99641.44;10458268;28;20040;-73
2023/12/22 14:57:30;;;;;;;30.73;28.30;;;;;;;5.13;100.00;99620.78;10422242;28;20468;-74
2023/12/22 15:02:31;;;;;;;33.00;30.35;;;;;;;5.09;100.00;99646.91;10438362;28;20040;-73
2023/12/22 15:07:31;;;;;;;32.60;30.50;;;;;;;5.13;100.00;99642.59;10454702;28;20417;-73
2023/12/22 15:12:36;;;;;;;32.15;29.27;;;;;;;5.12;100.00;99624.56;10455304;28;20045;-73
2023/12/22 15:17:36;;;;;;;32.50;30.30;;;;;;;5.24;100.00;99660.78;10406646;28;20037;-74
2023/12/22 15:22:37;;;;;;;32.08;30.13;;;;;;;5.23;100.00;99648.22;10414084;28;20504;-73
2023/12/22 15:27:39;;;;;;;31.45;29.40;;;;;;;5.22;100.00;99641.91;10420220;28;20044;-73
2023/12/22 15:32:40;;;;;;;33.83;31.35;;;;;;;5.34;100.00;99669.13;10411597;28;20048;-74
2023/12/22 15:37:41;;;;;;;32.50;30.48;;;;;;;5.38;100.00;99689.38;10436834;28;20048;-73
2023/12/22 15:42:41;;;;;;;32.08;29.77;;;;;;;5.40;100.00;99713.72;10439156;28;20381;-72
2023/12/22 15:47:42;;;;;;;34.25;31.55;;;;;;;5.40;100.00;99717.25;10454605;28;20040;-73
2023/12/22 15:52:42;;;;;;;37.17;33.58;;;;;;;5.52;100.00;99735.44;10420747;28;20045;-74
2023/12/22 15:57:44;;;;;;;36.80;33.70;;;;;;;5.53;100.00;99745.28;10456826;28;20431;-73
2023/12/22 16:02:45;;;;;;;36.65;33.53;;;;;;;5.60;100.00;99740.47;10480259;28;20041;-73
2023/12/22 16:07:45;;;;;;;32.97;30.30;;;;;;;5.58;100.00;99715.34;10461982;28;20048;-74
2023/12/22 16:12:46;;;;;;;33.78;31.15;;;;;;;5.64;100.00;99717.06;10446979;28;20045;-73
2023/12/22 16:17:46;;;;;;;30.30;27.80;;;;;;;5.49;100.00;99736.78;10466014;28;20044;-73
2023/12/22 16:22:47;;;;;;;29.70;26.65;;;;;;;5.63;100.00;99734.53;10480473;28;20060;-73
2023/12/22 16:27:47;;;;;;;25.63;22.88;;;;;;;5.69;100.00;99758.13;10457990;28;20048;-74
2023/12/22 16:32:48;;;;;;;25.48;23.48;;;;;;;5.79;100.00;99754.72;10429175;28;20056;-72
2023/12/22 16:37:49;;;;;;;28.52;26.35;;;;;;;5.78;100.00;99766.72;10444925;28;20059;-72
2023/12/22 16:42:49;;;;;;;26.27;24.25;;;;;;;5.73;100.00;99762.00;10465915;28;20094;-72
2023/12/22 16:47:50;;;;;;;26.83;24.80;;;;;;;5.74;100.00;99774.56;10445303;28;20048;-72
2023/12/22 16:52:51;;;;;;;25.08;23.02;;;;;;;5.72;100.00;99776.72;10463111;28;20045;-71
2023/12/22 16:57:51;;;;;;;19.17;17.70;;;;;;;5.77;100.00;99781.47;10444786;28;20037;-72
2023/12/22 17:02:52;;;;;;;16.88;14.63;;;;;;;5.75;100.00;99791.81;10443307;28;20497;-73
2023/12/22 17:07:52;;;;;;;16.20;11.98;;;;;;;5.80;100.00;99784.50;10441448;28;20052;-72
2023/12/22 17:12:53;;;;;;;11.57;10.02;;;;;;;5.93;100.00;99788.78;10458747;28;20056;-72
2023/12/22 17:17:53;;;;;;;15.98;8.50;;;;;;;6.03;100.00;99799.06;10453607;28;20057;-73
2023/12/22 17:22:54;;;;;;;10.35;7.53;;;;;;;5.92;100.00;99776.22;10436852;28;20048;-72
2023/12/22 17:27:54;;;;;;;22.08;7.82;;;;;;;5.62;100.00;99749.25;10462309;28;20033;-72
2023/12/22 17:32:55;;;;;;;11.40;8.38;;;;;;;6.12;100.00;99841.31;10462392;28;20412;-74
2023/12/22 17:37:55;;;;;;;12.27;7.78;;;;;;;5.96;100.00;99859.34;10458966;28;20659;-74
2023/12/22 17:42:56;;;;;;;10.98;7.63;;;;;;;5.92;100.00;99896.41;10461383;28;20040;-75
2023/12/22 17:47:56;;;;;;;17.02;9.40;;;;;;;5.86;100.00;99892.75;10461981;28;20044;-73
2023/12/22 17:52:57;;;;;;;14.20;12.90;;;;;;;5.59;100.00;99906.22;10458254;28;20040;-71
2023/12/22 17:57:57;;;;;;;13.85;12.95;;;;;;;5.29;100.00;99902.91;10436157;28;20037;-72
2023/12/22 18:02:58;;;;;;;14.00;12.50;;;;;;;5.03;100.00;99930.50;10419370;28;20875;-72
2023/12/22 18:07:58;;;;;;;13.77;12.70;;;;;;;4.88;100.00;99932.94;10426647;28;20041;-72
2023/12/22 18:12:59;;;;;;;14.45;13.05;;;;;;;4.88;100.00;99960.19;10459204;28;20208;-73
2023/12/22 18:17:59;;;;;;;14.85;13.48;;;;;;;4.81;100.00;99976.66;10456601;28;20053;-72
2023/12/22 18:23:00;;;;;;;15.77;14.63;;;;;;;4.69;100.00;99975.03;10440094;28;20041;-72
2023/12/22 18:28:00;;;;;;;16.67;15.13;;;;;;;4.68;100.00;99995.19;10439273;28;20087;-73
2023/12/22 18:33:01;;;;;;;14.02;13.13;;;;;;;4.65;100.00;99997.31;10406946;28;20060;-72
2023/12/22 18:38:01;;;;;;;14.80;12.68;;;;;;;4.66;100.00;100006.31;10458532;28;20580;-72
2023/12/22 18:43:03;;;;;;;14.85;13.30;;;;;;;4.69;100.00;100005.00;10460355;28;20049;-71
2023/12/22 18:48:04;;;;;;;13.50;12.35;;;;;;;4.74;100.00;99991.50;10449128;28;20052;-71
2023/12/22 18:53:06;;;;;;;13.90;12.88;;;;;;;4.61;100.00;99968.88;10439213;28;20594;-73
2023/12/22 18:58:06;;;;;;;12.82;11.02;;;;;;;4.78;100.00;100006.34;10423693;28;20048;-72
2023/12/22 19:03:07;;;;;;;12.48;9.80;;;;;;;4.70;100.00;99987.59;10458617;28;20041;-72
2023/12/22 19:08:07;;;;;;;9.98;9.18;;;;;;;4.87;100.00;100004.91;10457783;28;20048;-71
2023/12/22 19:13:08;;;;;;;15.10;9.15;;;;;;;4.90;100.00;100015.34;10454282;28;20052;-72
2023/12/22 19:18:08;;;;;;;8.27;7.47;;;;;;;4.97;100.00;100013.31;10459042;28;20037;-72
2023/12/22 19:23:09;;;;;;;12.23;7.70;;;;;;;4.87;100.00;99993.97;10472665;28;20040;-72
2023/12/22 19:28:09;;;;;;;8.43;7.82;;;;;;;4.90;100.00;100004.44;10437853;28;20056;-73
2023/12/22 19:33:11;;;;;;;12.63;11.35;;;;;;;4.97;100.00;100026.13;10420057;28;20041;-72
2023/12/22 19:38:13;;;;;;;13.30;12.27;;;;;;;4.74;100.00;100029.69;10457402;28;20041;-73
2023/12/22 19:43:16;;;;;;;12.63;11.50;;;;;;;4.62;100.00;100046.84;10472330;28;20556;-72
2023/12/22 19:48:17;;;;;;;13.57;12.20;;;;;;;4.66;100.00;100052.69;10455311;28;20066;-72
2023/12/22 19:53:17;;;;;;;13.77;12.52;;;;;;;4.64;100.00;100066.53;10437794;28;20119;-72
2023/12/22 19:58:18;;;;;;;19.98;13.88;;;;;;;4.61;100.00;100058.84;10438280;28;20071;-73
2023/12/22 20:03:18;;;;;;;16.48;15.48;;;;;;;4.81;100.00;100121.22;10457121;28;20037;-72
2023/12/22 20:08:19;;;;;;;20.90;19.85;;;;;;;4.55;100.00;100154.38;10423938;28;20045;-73
2023/12/22 20:13:21;;;;;;;20.58;18.75;;;;;;;3.75;100.00;100169.84;10421481;28;20037;-73
2023/12/22 20:18:21;;;;;;;24.58;23.02;;;;;;;3.28;100.00;100127.84;10454999;28;20115;-74
2023/12/22 20:23:22;;;;;;;26.02;24.38;;;;;;;3.14;100.00;100133.44;10470258;28;20063;-75
2023/12/22 20:28:24;;;;;;;26.50;25.40;;;;;;;3.25;100.00;100156.34;10452626;28;20033;-74
2023/12/22 20:33:25;;;;;;;26.40;24.58;;;;;;;3.30;100.00;100131.16;10456493;28;20095;-75
2023/12/22 20:38:25;;;;;;;23.08;21.67;;;;;;;3.57;100.00;100172.53;10456958;28;20094;-73
2023/12/22 20:43:26;;;;;;;17.90;16.80;;;;;;;3.62;100.00;100161.81;10435273;28;20406;-74
2023/12/22 20:48:27;;;;;;;15.38;13.43;;;;;;;3.62;100.00;100161.81;10460789;28;20039;-74
2023/12/22 20:53:27;;;;;;;12.95;11.98;;;;;;;3.78;100.00;100188.47;10472234;28;20041;-73
2023/12/22 20:58:29;;;;;;;16.52;12.20;;;;;;;3.95;100.00;100204.16;10418522;28;20047;-74
2023/12/22 21:03:30;;;;;;;17.98;16.60;;;;;;;3.79;100.00;100205.63;10458930;28;20033;-74
2023/12/22 21:08:30;;;;;;;21.33;19.50;;;;;;;3.59;100.00;100190.31;10443798;28;20129;-74
2023/12/22 21:13:31;;;;;;;23.40;21.08;;;;;;;3.49;100.00;100219.09;10427909;28;20041;-74
2023/12/22 21:18:32;;;;;;;25.67;23.40;;;;;;;3.52;100.00;100221.38;10443959;28;20076;-74
2023/12/22 21:23:33;;;;;;;28.08;24.63;;;;;;;3.58;100.00;100225.94;10459836;28;20056;-74
2023/12/22 21:28:33;;;;;;;25.70;23.50;;;;;;;3.70;100.00;100224.16;10459767;28;20100;-72
2023/12/22 21:33:36;;;;;;;22.38;20.58;;;;;;;3.77;100.00;100230.34;10425610;28;20041;-72
2023/12/22 21:38:36;;;;;;;20.85;19.05;;;;;;;3.98;100.00;100258.19;10460180;28;20068;-73
2023/12/22 21:43:37;;;;;;;29.08;26.35;;;;;;;3.96;100.00;100309.34;10436041;28;20049;-71
2023/12/22 21:48:38;;;;;;;29.45;26.80;;;;;;;3.52;100.00;100347.41;10460806;28;20061;-71
2023/12/22 21:53:39;;;;;;;32.33;30.23;;;;;;;3.11;100.00;100337.84;10443405;28;20048;-72
2023/12/22 21:58:39;;;;;;;31.85;29.63;;;;;;;2.86;100.00;100332.34;10442458;28;20786;-71
2023/12/22 22:03:40;;;;;;;34.90;32.28;;;;;;;2.66;100.00;100331.59;10462782;28;20571;-71
2023/12/22 22:08:40;;;;;;;37.78;34.38;;;;;;;2.51;100.00;100324.53;10427475;28;20400;-72
2023/12/22 22:13:41;;;;;;;34.83;31.98;;;;;;;2.42;100.00;100329.38;10461036;28;20092;-72
2023/12/22 22:18:42;;;;;;;35.22;31.92;;;;;;;2.38;100.00;100340.91;10459302;28;20065;-72
2023/12/22 22:23:42;;;;;;;37.10;33.65;;;;;;;2.56;100.00;100364.66;10475596;28;20045;-72
2023/12/22 22:28:43;;;;;;;37.67;34.42;;;;;;;2.51;100.00;100362.59;10460554;28;20032;-72
2023/12/22 22:33:45;;;;;;;34.67;30.60;;;;;;;2.60;100.00;100376.75;10460166;28;20045;-72
2023/12/22 22:38:46;;;;;;;33.45;29.17;;;;;;;2.61;100.00;100373.84;10461783;28;20044;-71
2023/12/22 22:43:46;;;;;;;31.15;28.48;;;;;;;2.76;100.00;100375.47;10458342;28;20044;-71
2023/12/22 22:48:47;;;;;;;30.77;27.83;;;;;;;2.81;100.00;100400.09;10474606;28;20029;-72